الصفحة الرئيسية
METAR-TAF:

METAR-TAF

مطار :

مطار تايبيه سونغشان

تايبيه, تايوان

دائرة عرض: 25-04N, خط طول: 121-33E, ارتفاع: 6 متر

مراقبة الطقس الحالي

تاريخ ووقت الإصدار 22 دقيقة قبل الساعة 00:30UTC
ريح 13 عقدة من الشرق
درجة الحرارة 23°درجة مئوية
الرطوبة 73%
ضغط 1020 hPa
الرؤية 10 كم أو أكثر
غيوم قليلة على ارتفاع 2000 قدم
غيوم مفككة على ارتفاع 4500 قدم
غيوم مفككة على ارتفاع 12000 قدم

METAR: RCSS 200030Z 09013KT 9999 FEW020 BKN045 BKN120 23/18 Q1020 NOSIG RMK A3012

زمن: 08:52 (00:52 UTC)

توقعات

تاريخ ووقت الإصدار 1ساعة و 52 دقيقة قبل الساعة 23:00UTC
التوقعات صالحة من20 الساعة 00 UTC إلى 20 الساعة 24 UTC
ريح 12 عقدة من الشرق
الرؤية 10 كم أو أكثر
غيوم قليلة على ارتفاع 2000 قدم
غيوم مفككة على ارتفاع 4500 قدم
مؤقت
من 20 الساعة 00 UTC إلى 20 الساعة 02 UTC
غيوم قليلة على ارتفاع 1000 قدم
غيوم مفككة على ارتفاع 1800 قدم
مؤقت
من 20 الساعة 02 UTC إلى 20 الساعة 08 UTC
ريح 18 عقدة من الشرق/الجنوب الشرقي

TAF: RCSS 192300Z 2000/2024 10012KT 9999 FEW020 BKN045 TEMPO 2000/2002 FEW010 BKN018 TEMPO 2002/2008 11018KT

أرصاد الطقس والتوقعات من أكثر من 4000 مطار (تقارير الطقس للمطار METAR والتنبؤ بالطقس بالمطارTAF).

المحطات المتاحة هي النقط الصفراء والحمراء على الخريطة.

حرك المؤشر فوق النقطة لمعرفة اسم المحطة.

ثم انقر لمعرفة أرصاد وتوقعات الطقس.

لتغيير الخارطة: اضغط على الأزرار الخضراء مع رمز الصليب الأسود للتكبير. على الزر الأخضر مع شرطة للتصغير، أو على الأسهم الخضراء للخرائط المجاورة.


METAR-TAF: